createdAt,value
2023-05-03T00:02:11.043Z,13.55
2023-05-03T00:04:38.626Z,13.37
2023-05-03T00:07:05.565Z,13.25
2023-05-03T00:09:35.070Z,13.82
2023-05-03T00:12:02.731Z,13.49
2023-05-03T00:14:29.688Z,12.96
2023-05-03T00:16:56.632Z,13.14
2023-05-03T00:19:31.378Z,13.19
2023-05-03T00:21:59.374Z,13.38
2023-05-03T00:24:27.248Z,13.39
2023-05-03T00:26:54.146Z,12.85
2023-05-03T00:29:22.967Z,12.72
2023-05-03T00:31:49.988Z,12.70
2023-05-03T00:34:17.219Z,12.65
2023-05-03T00:36:44.218Z,12.67
2023-05-03T00:39:11.560Z,12.61
2023-05-03T00:41:39.292Z,12.24
2023-05-03T00:44:06.589Z,12.56
2023-05-03T00:46:34.205Z,12.89
2023-05-03T00:49:01.613Z,12.44
2023-05-03T00:51:48.261Z,12.08
2023-05-03T00:54:49.274Z,12.82
2023-05-03T00:57:30.865Z,12.41
2023-05-03T00:59:59.176Z,12.71
2023-05-03T01:02:26.978Z,12.52
2023-05-03T01:04:55.444Z,12.35
2023-05-03T01:07:45.848Z,12.53
2023-05-03T01:10:22.454Z,12.41
2023-05-03T01:13:03.630Z,12.60
2023-05-03T01:15:49.414Z,12.53
2023-05-03T01:18:22.186Z,12.06
2023-05-03T01:20:50.815Z,12.39
2023-05-03T01:23:34.336Z,12.44
2023-05-03T01:26:15.387Z,11.69
2023-05-03T01:28:42.310Z,11.69
2023-05-03T01:31:10.630Z,12.27
2023-05-03T01:33:47.420Z,12.63
2023-05-03T01:36:26.581Z,12.30
2023-05-03T01:38:54.470Z,11.87
2023-05-03T01:41:24.956Z,12.56
2023-05-03T01:43:54.901Z,12.09
2023-05-03T01:46:22.431Z,12.19
2023-05-03T01:48:49.509Z,12.69
2023-05-03T01:51:16.414Z,12.89
2023-05-03T01:53:43.394Z,12.85
2023-05-03T01:56:10.346Z,13.14
2023-05-03T01:58:37.368Z,12.59
2023-05-03T02:01:06.985Z,12.99
2023-05-03T02:03:34.470Z,12.40
2023-05-03T02:06:01.503Z,12.81
2023-05-03T02:08:29.089Z,12.90
2023-05-03T02:10:56.062Z,12.97
2023-05-03T02:13:23.012Z,12.56
2023-05-03T02:15:50.116Z,12.03
2023-05-03T02:18:17.517Z,13.18
2023-05-03T02:20:46.268Z,13.20
2023-05-03T02:23:13.596Z,13.23
2023-05-03T02:25:41.759Z,13.41
2023-05-03T02:28:08.655Z,13.40
2023-05-03T02:30:36.195Z,13.38
2023-05-03T02:33:03.177Z,13.42
2023-05-03T02:35:30.931Z,13.02
2023-05-03T02:37:57.907Z,13.34
2023-05-03T02:40:25.448Z,13.29
2023-05-03T02:42:52.756Z,13.23
2023-05-03T02:45:25.023Z,13.31
2023-05-03T02:47:52.097Z,13.71
2023-05-03T02:50:19.607Z,13.68
2023-05-03T02:52:46.901Z,12.72
2023-05-03T02:55:13.879Z,12.99
2023-05-03T02:57:43.159Z,13.45
2023-05-03T03:00:15.352Z,12.97
2023-05-03T03:02:43.085Z,13.03
2023-05-03T03:05:10.813Z,12.64
2023-05-03T03:07:39.834Z,12.51
2023-05-03T03:10:07.902Z,13.27
2023-05-03T03:12:38.325Z,12.93
2023-05-03T03:15:09.153Z,12.90
2023-05-03T03:17:39.496Z,12.26
2023-05-03T03:20:13.457Z,12.48
2023-05-03T03:22:45.593Z,12.80
2023-05-03T03:25:12.867Z,12.68
2023-05-03T03:27:40.176Z,12.79
2023-05-03T03:30:09.441Z,12.29
2023-05-03T03:32:44.752Z,12.00
2023-05-03T03:35:17.216Z,12.60
2023-05-03T03:37:44.276Z,12.51
2023-05-03T03:40:12.233Z,12.52
2023-05-03T03:42:40.533Z,12.74
2023-05-03T03:45:08.035Z,12.91
2023-05-03T03:47:34.971Z,12.54
2023-05-03T03:50:02.457Z,12.98
2023-05-03T03:52:32.059Z,13.09
2023-05-03T03:54:59.057Z,13.56
2023-05-03T03:57:30.341Z,13.22
2023-05-03T04:00:17.389Z,13.31
2023-05-03T04:03:25.415Z,12.97
2023-05-03T04:06:26.443Z,13.22
2023-05-03T04:09:10.894Z,13.66
2023-05-03T04:11:39.050Z,13.75
2023-05-03T04:14:07.280Z,13.42
2023-05-03T04:16:34.590Z,13.16
2023-05-03T04:19:03.528Z,13.64
2023-05-03T04:21:33.462Z,13.66
2023-05-03T04:24:02.088Z,13.46
2023-05-03T04:26:32.098Z,13.48
2023-05-03T04:29:07.201Z,13.35
2023-05-03T04:31:35.814Z,13.36
2023-05-03T04:34:02.882Z,13.90
2023-05-03T04:36:30.109Z,13.85
2023-05-03T04:38:58.760Z,13.57
2023-05-03T04:41:25.860Z,13.85
2023-05-03T04:43:54.479Z,13.51
2023-05-03T04:46:21.922Z,13.19
2023-05-03T04:48:50.635Z,13.29
2023-05-03T04:51:18.734Z,13.34
2023-05-03T04:53:46.868Z,13.24
2023-05-03T04:56:17.859Z,13.41
2023-05-03T04:58:45.075Z,13.55
2023-05-03T05:01:14.874Z,12.76
2023-05-03T05:03:41.947Z,12.99
2023-05-03T05:06:16.073Z,13.07
2023-05-03T05:08:43.183Z,12.56
2023-05-03T05:11:13.866Z,12.86
2023-05-03T05:13:54.420Z,12.85
2023-05-03T05:16:55.476Z,13.07
2023-05-03T05:19:36.032Z,13.06
2023-05-03T05:22:03.025Z,12.45
2023-05-03T05:24:39.623Z,12.99
2023-05-03T05:27:07.052Z,13.86
2023-05-03T05:29:34.309Z,13.59
2023-05-03T05:32:03.576Z,13.92
2023-05-03T05:34:39.100Z,14.14
2023-05-03T05:37:11.649Z,14.19
2023-05-03T05:39:39.214Z,14.27
2023-05-03T05:42:06.875Z,13.90
2023-05-03T05:44:33.834Z,13.79
2023-05-03T05:47:01.130Z,14.03
2023-05-03T05:49:48.438Z,13.89
2023-05-03T05:52:29.115Z,13.95
2023-05-03T05:54:56.481Z,14.13
2023-05-03T05:57:23.550Z,14.34
2023-05-03T05:59:52.600Z,14.37
2023-05-03T06:02:23.289Z,14.78
2023-05-03T06:04:50.418Z,14.50
2023-05-03T06:07:17.748Z,14.79
2023-05-03T06:09:44.702Z,14.94
2023-05-03T06:12:12.759Z,14.81
2023-05-03T06:14:51.696Z,14.97
2023-05-03T06:17:29.606Z,15.30
2023-05-03T06:19:57.597Z,15.66
2023-05-03T06:22:25.363Z,15.32
2023-05-03T06:24:53.405Z,15.78
2023-05-03T06:27:20.459Z,16.08
2023-05-03T06:29:50.098Z,16.48
2023-05-03T06:32:19.053Z,16.74
2023-05-03T06:34:46.691Z,17.18
2023-05-03T06:37:15.501Z,16.30
2023-05-03T06:39:42.544Z,16.60
2023-05-03T06:42:09.579Z,17.63
2023-05-03T06:44:39.481Z,17.69
2023-05-03T06:47:06.992Z,18.01
2023-05-03T06:49:34.006Z,18.37
2023-05-03T06:52:00.886Z,18.71
2023-05-03T06:54:27.835Z,19.17
2023-05-03T06:56:54.725Z,18.91
2023-05-03T06:59:21.652Z,18.99
2023-05-03T07:02:08.623Z,19.69
2023-05-03T07:05:09.605Z,20.01
2023-05-03T07:08:10.480Z,19.71
2023-05-03T07:11:11.460Z,19.78
2023-05-03T07:14:12.466Z,20.28
2023-05-03T07:17:13.494Z,20.13
2023-05-03T07:19:54.340Z,20.91
2023-05-03T07:22:24.812Z,21.11
2023-05-03T07:24:54.629Z,21.58
2023-05-03T07:27:22.073Z,22.01
2023-05-03T07:29:49.025Z,21.21
2023-05-03T07:32:16.811Z,21.55
2023-05-03T07:34:43.805Z,22.17
2023-05-03T07:37:10.712Z,22.11
2023-05-03T07:42:58.469Z,22.39
2023-05-03T07:45:39.336Z,22.37
2023-05-03T07:48:08.348Z,22.63
2023-05-03T07:50:56.796Z,22.28
2023-05-03T07:53:40.482Z,23.37
2023-05-03T07:56:07.932Z,21.80
2023-05-03T07:58:40.087Z,22.14
2023-05-03T08:01:07.941Z,22.62
2023-05-03T08:03:35.451Z,22.92
2023-05-03T08:06:03.198Z,22.34
2023-05-03T08:08:31.660Z,22.55
2023-05-03T08:10:58.586Z,21.79
2023-05-03T08:13:25.736Z,22.38
2023-05-03T08:15:53.017Z,21.82
2023-05-03T08:18:22.309Z,21.56
2023-05-03T08:20:50.801Z,22.90
2023-05-03T08:23:17.981Z,22.92
2023-05-03T08:25:45.555Z,23.37
2023-05-03T08:28:12.380Z,23.13
2023-05-03T08:30:39.543Z,23.28
2023-05-03T08:33:06.529Z,23.44
2023-05-03T08:35:53.549Z,23.58
2023-05-03T08:38:54.562Z,23.78
2023-05-03T08:41:48.525Z,23.86
2023-05-03T08:44:29.891Z,21.33
2023-05-03T08:46:56.883Z,18.86
2023-05-03T08:49:24.446Z,19.38
2023-05-03T08:51:52.314Z,18.37
2023-05-03T08:54:22.131Z,18.06
2023-05-03T08:56:49.682Z,17.68
2023-05-03T08:59:17.500Z,18.04
2023-05-03T09:01:44.665Z,19.03
2023-05-03T09:04:12.331Z,20.01
2023-05-03T09:06:39.933Z,19.54
2023-05-03T09:09:08.758Z,20.85
2023-05-03T09:11:38.474Z,21.12
2023-05-03T09:14:16.761Z,21.99
2023-05-03T09:16:46.893Z,21.57
2023-05-03T09:19:16.647Z,20.79
2023-05-03T09:21:47.339Z,20.70
2023-05-03T09:24:35.561Z,19.78
2023-05-03T09:27:37.577Z,18.67
2023-05-03T09:30:21.332Z,19.48
2023-05-03T09:33:08.601Z,20.28
2023-05-03T09:36:04.958Z,20.75
2023-05-03T09:38:51.550Z,20.94
2023-05-03T09:41:52.608Z,20.80
2023-05-03T09:44:53.983Z,19.84
2023-05-03T09:47:25.495Z,19.72
2023-05-03T09:49:52.704Z,20.98
2023-05-03T09:52:21.896Z,21.11
2023-05-03T09:54:49.929Z,22.16
2023-05-03T09:57:17.725Z,21.41
2023-05-03T09:59:45.305Z,22.01
2023-05-03T10:02:12.328Z,20.41
2023-05-03T10:05:06.968Z,22.23
2023-05-03T10:07:51.787Z,22.33
2023-05-03T10:10:19.525Z,22.73
2023-05-03T10:13:06.769Z,23.02
2023-05-03T10:15:49.662Z,23.78
2023-05-03T10:18:18.945Z,24.47
2023-05-03T10:20:54.975Z,24.56
2023-05-03T10:23:41.622Z,24.73
2023-05-03T10:26:42.586Z,24.98
2023-05-03T10:29:58.701Z,23.01
2023-05-03T10:32:57.600Z,24.61
2023-05-03T10:35:29.628Z,24.97
2023-05-03T10:38:27.699Z,24.01
2023-05-03T10:41:08.300Z,22.65
2023-05-03T10:43:35.282Z,22.89
2023-05-03T10:46:05.892Z,21.27
2023-05-03T10:48:53.628Z,21.39
2023-05-03T10:51:54.599Z,21.19
2023-05-03T10:54:35.181Z,22.26
2023-05-03T10:57:02.186Z,22.40
2023-05-03T10:59:47.796Z,22.32
2023-05-03T11:02:23.197Z,22.37
2023-05-03T11:04:53.208Z,21.05
2023-05-03T11:07:24.515Z,21.45
2023-05-03T11:09:52.383Z,21.40
2023-05-03T11:12:23.645Z,21.85
2023-05-03T11:14:51.072Z,21.44
2023-05-03T11:17:18.084Z,21.78
2023-05-03T11:19:48.388Z,22.66
2023-05-03T11:22:15.783Z,20.85
2023-05-03T11:25:02.895Z,21.43
2023-05-03T11:28:03.669Z,21.45
2023-05-03T11:30:46.828Z,21.00
2023-05-03T11:33:13.901Z,20.80
2023-05-03T11:35:42.341Z,21.86
2023-05-03T11:38:29.753Z,23.00
2023-05-03T11:41:19.227Z,22.29
2023-05-03T11:44:00.458Z,23.16
2023-05-03T11:46:35.790Z,22.04
2023-05-03T11:49:03.647Z,22.28
2023-05-03T11:51:31.621Z,21.27
2023-05-03T11:54:28.811Z,22.51
2023-05-03T11:57:29.635Z,22.80
2023-05-03T12:00:30.726Z,22.55
2023-05-03T12:03:34.409Z,22.45
2023-05-03T12:06:18.171Z,22.46
2023-05-03T12:08:48.621Z,22.82
2023-05-03T12:11:20.801Z,23.69
2023-05-03T12:14:03.541Z,23.45
2023-05-03T12:16:47.477Z,22.67
2023-05-03T12:19:27.752Z,23.35
2023-05-03T12:22:18.071Z,23.37
2023-05-03T12:24:45.138Z,22.83
2023-05-03T12:27:54.494Z,22.93
2023-05-03T12:30:34.743Z,22.18
2023-05-03T12:33:04.310Z,20.77
2023-05-03T12:35:34.231Z,20.84
2023-05-03T12:38:17.482Z,21.93
2023-05-03T12:41:52.197Z,22.21
2023-05-03T12:44:23.523Z,21.13
2023-05-03T12:47:16.176Z,21.42
2023-05-03T12:50:25.001Z,20.83
2023-05-03T12:53:08.888Z,21.28
2023-05-03T12:55:58.572Z,21.72
2023-05-03T12:59:27.302Z,22.08
2023-05-03T13:07:01.397Z,21.26
2023-05-03T13:09:38.615Z,22.29
2023-05-03T13:12:20.472Z,22.09
2023-05-03T13:14:48.822Z,22.62
2023-05-03T13:17:16.907Z,23.02
2023-05-03T13:19:49.757Z,23.17
2023-05-03T13:22:18.045Z,22.86
2023-05-03T13:24:46.695Z,23.24
2023-05-03T13:27:14.234Z,21.38
2023-05-03T13:29:44.766Z,21.23
2023-05-03T13:32:32.749Z,21.88
2023-05-03T13:35:13.592Z,22.04
2023-05-03T13:38:01.819Z,22.44
2023-05-03T13:41:02.836Z,22.54
2023-05-03T13:43:43.366Z,22.42
2023-05-03T13:46:10.733Z,22.78
2023-05-03T13:48:57.757Z,23.08
2023-05-03T13:51:58.746Z,22.90
2023-05-03T13:55:00.848Z,22.95
2023-05-03T13:58:09.104Z,23.17
2023-05-03T14:00:49.326Z,23.20
2023-05-03T14:03:18.311Z,23.28
2023-05-03T14:05:46.224Z,22.08
2023-05-03T14:08:27.073Z,23.19
2023-05-03T14:10:55.161Z,23.25
2023-05-03T14:13:34.789Z,21.43
2023-05-03T14:16:44.036Z,23.32
2023-05-03T14:19:34.524Z,22.50
2023-05-03T14:25:32.031Z,21.73
2023-05-03T14:27:59.232Z,20.48
2023-05-03T14:30:46.853Z,21.12
2023-05-03T14:33:37.180Z,21.97
2023-05-03T14:36:27.823Z,22.52
2023-05-03T14:39:29.008Z,22.22
2023-05-03T14:42:23.419Z,22.03
2023-05-03T14:44:50.484Z,22.09
2023-05-03T14:50:43.810Z,22.95
2023-05-03T14:53:32.525Z,22.86
2023-05-03T14:56:57.160Z,23.11
2023-05-03T15:05:51.668Z,22.68
2023-05-03T15:08:22.161Z,21.86
2023-05-03T15:10:52.042Z,22.41
2023-05-03T15:13:22.581Z,21.35
2023-05-03T15:15:49.834Z,22.37
2023-05-03T15:18:20.261Z,22.65
2023-05-03T15:20:47.906Z,22.63
2023-05-03T15:23:16.252Z,22.46
2023-05-03T15:25:46.621Z,22.23
2023-05-03T15:28:13.692Z,21.91
2023-05-03T15:30:40.818Z,22.18
2023-05-03T15:33:11.086Z,21.40
2023-05-03T15:35:41.459Z,21.26
2023-05-03T15:38:29.906Z,21.40
2023-05-03T15:41:10.448Z,21.56
2023-05-03T15:43:37.561Z,21.53
2023-05-03T15:46:24.902Z,21.29
2023-05-03T15:49:06.669Z,21.10
2023-05-03T15:52:00.815Z,20.87
2023-05-03T15:55:02.873Z,21.52
2023-05-03T15:58:06.148Z,21.95
2023-05-03T16:00:47.223Z,21.55
2023-05-03T16:03:23.436Z,20.55
2023-05-03T16:06:13.137Z,21.30
2023-05-03T16:09:18.194Z,21.74
2023-05-03T16:11:59.274Z,21.79
2023-05-03T16:14:26.562Z,21.77
2023-05-03T16:16:54.454Z,21.92
2023-05-03T16:19:23.524Z,21.59
2023-05-03T16:22:16.394Z,21.33
2023-05-03T16:25:17.911Z,20.69
2023-05-03T16:27:59.684Z,20.62
2023-05-03T16:30:26.840Z,20.77
2023-05-03T16:33:15.830Z,21.05
2023-05-03T16:35:56.805Z,20.95
2023-05-03T16:38:43.982Z,21.15
2023-05-03T16:41:24.440Z,20.03
2023-05-03T16:43:51.854Z,19.94
2023-05-03T16:46:22.862Z,20.44
2023-05-03T16:48:50.740Z,19.83
2023-05-03T16:51:40.607Z,19.98
2023-05-03T16:54:41.875Z,20.58
2023-05-03T16:57:42.944Z,20.19
2023-05-03T17:00:23.500Z,20.80
2023-05-03T17:02:51.379Z,20.39
2023-05-03T17:05:39.934Z,20.65
2023-05-03T17:08:40.924Z,20.63
2023-05-03T17:11:22.586Z,20.85
2023-05-03T17:13:49.526Z,20.75
2023-05-03T17:16:22.939Z,20.90
2023-05-03T17:18:50.505Z,20.34
2023-05-03T17:21:37.894Z,20.24
2023-05-03T17:24:18.431Z,20.67
2023-05-03T17:27:07.058Z,20.48
2023-05-03T17:29:48.665Z,20.60
2023-05-03T17:32:34.316Z,19.16
2023-05-03T17:35:05.208Z,19.08
2023-05-03T17:37:35.163Z,20.02
2023-05-03T17:40:22.881Z,20.39
2023-05-03T17:43:05.742Z,20.39
2023-05-03T17:51:53.583Z,19.13
2023-05-03T17:54:24.741Z,19.60
2023-05-03T17:57:32.007Z,20.24
2023-05-03T18:00:35.538Z,20.14
2023-05-03T18:03:18.031Z,20.07
2023-05-03T18:05:46.049Z,19.73
2023-05-03T18:08:22.060Z,18.16
2023-05-03T18:10:50.657Z,19.58
2023-05-03T18:13:22.872Z,18.35
2023-05-03T18:15:50.212Z,18.75
2023-05-03T18:18:23.938Z,17.73
2023-05-03T18:20:59.792Z,18.24
2023-05-03T18:23:26.964Z,18.52
2023-05-03T18:25:54.391Z,19.13
2023-05-03T18:28:26.848Z,18.16
2023-05-03T18:30:56.893Z,18.34
2023-05-03T18:33:24.302Z,16.98
2023-05-03T18:35:53.107Z,17.75
2023-05-03T18:38:40.207Z,17.45
2023-05-03T18:41:41.050Z,18.62
2023-05-03T18:44:24.821Z,18.51
2023-05-03T18:46:55.528Z,18.37
2023-05-03T18:49:23.065Z,18.13
2023-05-03T18:51:53.362Z,17.88
2023-05-03T18:54:33.974Z,18.07
2023-05-03T18:57:35.117Z,18.00
2023-05-03T19:00:39.132Z,18.02
2023-05-03T19:03:39.703Z,17.06
2023-05-03T19:06:39.240Z,17.99
2023-05-03T19:09:40.912Z,17.95
2023-05-03T19:13:00.347Z,17.92
2023-05-03T19:15:43.004Z,17.61
2023-05-03T19:18:42.381Z,17.77
2023-05-03T19:21:43.992Z,17.84
2023-05-03T19:24:44.353Z,17.66
2023-05-03T19:27:44.509Z,17.72
2023-05-03T19:30:13.914Z,17.74
2023-05-03T19:32:53.825Z,17.50
2023-05-03T19:35:22.958Z,16.68
2023-05-03T19:38:12.236Z,16.81
2023-05-03T19:41:18.328Z,17.15
2023-05-03T19:43:58.722Z,16.48
2023-05-03T19:46:26.228Z,17.14
2023-05-03T19:49:22.159Z,16.98
2023-05-03T19:52:08.756Z,16.97
2023-05-03T19:54:56.208Z,16.88
2023-05-03T19:57:57.084Z,16.88
2023-05-03T20:00:58.079Z,16.95
2023-05-03T20:04:00.226Z,17.14
2023-05-03T20:06:47.878Z,17.06
2023-05-03T20:09:16.929Z,17.10
2023-05-03T20:11:47.537Z,16.56
2023-05-03T20:14:37.104Z,16.59
2023-05-03T20:17:22.920Z,16.95
2023-05-03T20:19:50.625Z,16.28
2023-05-03T20:22:18.423Z,16.44
2023-05-03T20:25:06.111Z,16.41
2023-05-03T20:27:46.990Z,16.77
2023-05-03T20:30:14.482Z,16.20
2023-05-03T20:32:48.850Z,16.06
2023-05-03T20:35:25.064Z,15.04
2023-05-03T20:38:15.187Z,16.98
2023-05-03T20:41:12.321Z,17.08
2023-05-03T20:44:06.218Z,16.64
2023-05-03T20:46:39.384Z,17.08
2023-05-03T20:51:57.093Z,16.52
2023-05-03T20:54:24.898Z,17.13
2023-05-03T20:56:52.045Z,16.81
2023-05-03T20:59:25.874Z,16.94
2023-05-03T21:01:53.073Z,17.50
2023-05-03T21:04:40.051Z,17.24
2023-05-03T21:07:21.720Z,17.57
2023-05-03T21:09:49.036Z,16.47
2023-05-03T21:12:18.335Z,17.41
2023-05-03T21:15:06.505Z,17.01
2023-05-03T21:17:47.439Z,17.06
2023-05-03T21:20:15.975Z,16.77
2023-05-03T21:23:03.628Z,16.63
2023-05-03T21:25:43.709Z,16.37
2023-05-03T21:28:11.955Z,16.93
2023-05-03T21:30:42.296Z,16.76
2023-05-03T21:36:19.447Z,17.28
2023-05-03T21:39:20.075Z,17.12
2023-05-03T21:42:00.544Z,17.35
2023-05-03T21:44:27.772Z,17.38
2023-05-03T21:46:54.797Z,17.15
2023-05-03T21:49:25.536Z,17.34
2023-05-03T21:51:52.965Z,17.59
2023-05-03T21:54:40.084Z,17.14
2023-05-03T21:57:41.131Z,17.65
2023-05-03T22:00:35.102Z,17.23
2023-05-03T22:03:36.172Z,17.72
2023-05-03T22:06:24.476Z,17.57
2023-05-03T22:08:51.535Z,17.00
2023-05-03T22:11:25.784Z,16.75
2023-05-03T22:14:15.099Z,17.46
2023-05-03T22:16:56.106Z,17.08
2023-05-03T22:19:23.082Z,17.41
2023-05-03T22:21:50.558Z,17.39
2023-05-03T22:24:24.172Z,17.55
2023-05-03T22:26:51.363Z,17.19
2023-05-03T22:29:38.093Z,16.72
2023-05-03T22:32:20.391Z,17.05
2023-05-03T22:34:50.198Z,16.45
2023-05-03T22:37:18.766Z,16.81
2023-05-03T22:40:07.080Z,16.89
2023-05-03T22:42:49.931Z,16.57
2023-05-03T22:45:21.211Z,16.88
2023-05-03T22:47:51.182Z,16.45
2023-05-03T22:50:22.778Z,16.66
2023-05-03T22:52:49.961Z,16.45
2023-05-03T22:55:18.312Z,16.53
2023-05-03T22:57:51.701Z,16.07
2023-05-03T23:00:24.908Z,16.59
2023-05-03T23:02:52.006Z,16.53
2023-05-03T23:05:22.034Z,16.68
2023-05-03T23:07:49.169Z,16.45
2023-05-03T23:10:16.571Z,15.96
2023-05-03T23:13:09.999Z,16.41
2023-05-03T23:16:11.564Z,16.26
2023-05-03T23:18:55.668Z,15.28
2023-05-03T23:21:22.904Z,15.81
2023-05-03T23:24:13.728Z,15.92
2023-05-03T23:27:15.681Z,15.67
2023-05-03T23:29:56.788Z,16.04
2023-05-03T23:32:24.269Z,16.20
2023-05-03T23:34:51.643Z,16.07
2023-05-03T23:37:27.067Z,15.92
2023-05-03T23:40:24.987Z,15.86
2023-05-03T23:45:49.900Z,15.62
2023-05-03T23:48:26.166Z,16.18
2023-05-03T23:50:53.433Z,15.29
2023-05-03T23:53:21.132Z,15.83
2023-05-03T23:55:48.281Z,15.76
2023-05-03T23:58:16.348Z,15.86
